Flight Track Log - Related Links

Times and Time Zones

All times are in EDT time to prevent confusion due to time zone crossing. See the AAY842 flight status page for this flight to view local times or setup timezone preferences in your user account.

Time Position Orientation Groundspeed Altitude Reporting Facility
EDT Latitude Longitude Course Direction KTS MPH feet Rate Location/Type
Mon 02:32:11 PM 27.9000 -82.6833 180° South 146 168 700  Level Tampa TRACON
Mon 02:33:29 PM 27.8333 -82.6833 180° South 220 253 2,900 1,957 Climbing Tampa TRACON
Mon 02:34:29 PM 27.7833 -82.7333 222° Southwest 270 311 5,200 2,446 Climbing Tampa TRACON
Mon 02:36:33 PM 27.9267 -82.7444 356° North 292 336 10,400 2,185 Climbing Jacksonville Center
Mon 02:37:33 PM 28.0164 -82.7117 18° North 311 358 11,900 1,843 Climbing Jacksonville Center
Mon 02:43:07 PM 28.6110 -82.6452 North 415 478 22,500 1,770 Climbing FlightAware ADS-B
Mon 02:44:47 PM 28.8153 -82.6355 North 438 504 24,700 1,329 Climbing FlightAware ADS-B
Mon 02:45:54 PM 28.9131 -82.6308 North 440 506 26,200 1,299 Climbing FlightAware ADS-B
Mon 02:47:01 PM 29.0516 -82.6241 North 450 518 27,600 1,220 Climbing FlightAware ADS-B
Mon 02:47:57 PM 29.2057 -82.6166 North 456 525 28,700 1,243 Climbing FlightAware ADS-B
Mon 02:48:52 PM 29.3261 -82.6107 North 456 525 29,900 1,227 Climbing FlightAware ADS-B
Mon 02:49:25 PM 29.3963 -82.6073 North 459 528 30,500 1,091 Climbing FlightAware ADS-B
Mon 02:50:09 PM 29.4739 -82.6035 North 458 527 31,300 1,185 Climbing FlightAware ADS-B
Mon 02:50:46 PM 29.5612 -82.5992 North 457 526 32,100 1,291 Climbing FlightAware ADS-B
Mon 02:51:28 PM 29.6565 -82.5945 North 454 522 33,000 1,012 Climbing FlightAware ADS-B
Mon 02:52:09 PM 29.7439 -82.5902 North 459 528 33,500 933 Climbing FlightAware ADS-B
Mon 02:52:58 PM 29.8473 -82.5852 North 458 527 34,400 1,091 Climbing FlightAware ADS-B
Mon 02:53:37 PM 29.9308 -82.5811 North 455 524 35,100 1,000 Climbing FlightAware ADS-B
Mon 02:54:22 PM 30.0237 -82.5764 North 453 521 35,800 900 Climbing FlightAware ADS-B
Mon 02:54:57 PM 30.0984 -82.5728 North 453 521 36,300 923 Climbing FlightAware ADS-B
Mon 02:55:27 PM 30.1613 -82.5696 North 448 516 36,800 600 Climbing FlightAware ADS-B
Mon 02:56:07 PM 30.2446 -82.5655 North 452 520 37,000 148 Climbing FlightAware ADS-B
Mon 02:56:48 PM 30.3299 -82.5613 North 451 519 37,000  Level FlightAware ADS-B
Mon 02:57:22 PM 30.4006 -82.5578 North 452 520 37,000  Level FlightAware ADS-B
Mon 02:58:00 PM 30.4795 -82.5504 North 459 528 37,000  Level FlightAware ADS-B
Mon 02:58:33 PM 30.5292 -82.5428 19° North 447 514 37,000  Level Jacksonville Center
Mon 02:58:35 PM 30.5469 -82.5345 14° North 465 535 37,000  Level FlightAware ADS-B
Mon 02:59:27 PM 30.6274 -82.5046 19° North 472 543 37,000  Level FlightAware ADS-B
Mon 02:59:33 PM 30.6542 -82.4967 18° North 457 526 37,000  Level Jacksonville Center
Mon 03:00:21 PM 30.7735 -82.4470 19° North 472 543 37,000  Level FlightAware ADS-B
Mon 03:00:33 PM 30.7772 -82.4478 19° North 457 526 37,000  Level Jacksonville Center
Mon 03:01:33 PM 30.9025 -82.3961 19° North 462 532 37,000  Level Jacksonville Center
Mon 03:02:33 PM 31.0253 -82.3494 18° North 462 532 37,000  Level Jacksonville Center
Mon 03:03:00 PM 31.0803 -82.3210 19° North  Level FlightAware Approximate
Mon 03:03:33 PM 31.1503 -82.2978 19° North 467 537 37,000  Level Jacksonville Center
Mon 03:04:33 PM 31.2756 -82.2533 17° North 462 532 37,000  Level Jacksonville Center
Mon 03:05:33 PM 31.4006 -82.2014 20° North 462 532 37,000  Level Jacksonville Center
Mon 03:06:33 PM 31.5233 -82.1542 18° North 462 532 37,000  Level Jacksonville Center
Mon 03:07:33 PM 31.6589 -82.0944 21° North 462 532 37,000  Level Jacksonville Center
Mon 03:08:33 PM 31.7711 -82.0519 18° North 467 537 37,000  Level Jacksonville Center
Mon 03:09:33 PM 31.9086 -81.9969 19° North 467 537 37,000  Level Jacksonville Center
Mon 03:10:33 PM 32.0336 -81.9442 20° North 467 537 37,000  Level Jacksonville Center
Mon 03:11:33 PM 32.1458 -81.8889 23° Northeast 474 545 37,000  Level Jacksonville Center
Mon 03:12:33 PM 32.2831 -81.8236 22° Northeast 474 545 37,000  Level Jacksonville Center
Mon 03:13:33 PM 32.4058 -81.7656 22° Northeast 474 545 37,000  Level Jacksonville Center
Mon 03:14:33 PM 32.5200 -81.7100 22° Northeast 474 545 37,000  Level Jacksonville Center
Mon 03:15:33 PM 32.6572 -81.6442 22° Northeast 474 545 37,000  Level Jacksonville Center
Mon 03:16:33 PM 32.7694 -81.5906 22° Northeast 474 545 37,000  Level Jacksonville Center
Mon 03:17:33 PM 32.8942 -81.5294 22° Northeast 474 545 37,000  Level Jacksonville Center
Mon 03:18:33 PM 33.0206 -81.4681 22° Northeast 474 545 37,000 -50 Level Jacksonville Center
Mon 03:19:33 PM 33.1453 -81.4064 22° Northeast 474 545 36,900  Descending Jacksonville Center
Mon 03:20:33 PM 33.2697 -81.3472 22° Northeast 474 545 37,000 13 Climbing Jacksonville Center
Mon 03:27:19 PM 34.1376 -80.9190 22° Northeast 482 555 37,000  Level FlightAware ADS-B (EFHN)
Mon 03:27:58 PM 34.2188 -80.8797 22° Northeast 481 554 37,000  Level FlightAware ADS-B (EFHN)
Mon 03:28:37 PM 34.2977 -80.8417 22° Northeast 481 554 37,000  Level FlightAware ADS-B (EFHN)
Mon 03:29:30 PM 34.4073 -80.7886 22° Northeast 481 554 37,000  Level FlightAware ADS-B (EFHN)
Mon 03:30:08 PM 34.4767 -80.7581 22° Northeast 501 577 37,000  Level Atlanta Center
Mon 03:31:08 PM 34.6003 -80.6978 22° Northeast 488 562 37,000  Level Atlanta Center
Mon 03:32:08 PM 34.7281 -80.6344 22° Northeast 488 562 37,000  Level Atlanta Center
Mon 03:33:08 PM 34.8514 -80.5736 22° Northeast 482 555 37,000  Level Atlanta Center
Mon 03:34:08 PM 34.9769 -80.5128 22° Northeast 482 555 37,000  Level Atlanta Center
Mon 03:35:08 PM 35.0922 -80.4544 22° Northeast 491 565 37,000  Level Atlanta Center
Mon 03:36:08 PM 35.2178 -80.3931 22° Northeast 486 559 37,000  Level Atlanta Center
Mon 03:37:08 PM 35.3408 -80.3292 23° Northeast 486 559 37,000  Level Atlanta Center
Mon 03:38:08 PM 35.4703 -80.2647 22° Northeast 491 565 37,000  Level Atlanta Center
Mon 03:39:08 PM 35.5958 -80.2028 22° Northeast 491 565 37,000  Level Atlanta Center
Mon 03:40:08 PM 35.7353 -80.1297 23° Northeast 486 559 37,000  Level Atlanta Center
Mon 03:41:08 PM 35.8606 -80.0672 22° Northeast 486 559 37,000  Level Atlanta Center
Mon 03:42:40 PM 36.0422 -79.9767 22° Northeast 491 565 37,000  Level Washington Center
Mon 03:43:41 PM 36.1592 -79.8883 31° Northeast 491 565 37,000  Level Washington Center
Mon 03:44:41 PM 36.2769 -79.7961 32° Northeast 493 567 37,000  Level Washington Center
Mon 03:45:46 PM 36.3911 -79.7039 33° Northeast 497 572 37,000  Level Washington Center
Mon 03:46:47 PM 36.5317 -79.6169 26° Northeast 484 557 37,000  Level Washington Center
Mon 03:47:50 PM 36.6481 -79.5419 27° Northeast 484 557 37,000  Level Washington Center
Mon 03:48:50 PM 36.7656 -79.4678 27° Northeast 485 558 37,000  Level Washington Center
Mon 03:49:54 PM 36.9042 -79.3783 27° Northeast 483 556 37,000  Level Washington Center
Mon 03:50:54 PM 37.0211 -79.3031 27° Northeast 487 560 37,000  Level Washington Center
Mon 03:51:58 PM 37.1369 -79.2278 27° Northeast 486 559 37,000  Level Washington Center
Mon 03:52:59 PM 37.2750 -79.1372 28° Northeast 482 555 37,000  Level Washington Center
Mon 03:58:27 PM 37.9417 -78.6995 28° Northeast 488 562 37,000  Level FlightAware ADS-B (KCHO)
Mon 03:58:57 PM 38.0028 -78.6589 28° Northeast 488 562 37,000  Level FlightAware ADS-B (KCHO)
Mon 03:59:30 PM 38.0584 -78.6219 28° Northeast 489 563 37,000  Level FlightAware ADS-B (KCHO)
Mon 04:00:00 PM 38.1230 -78.5787 28° Northeast 488 562 37,000  Level FlightAware ADS-B (KCHO)
Mon 04:00:31 PM 38.1852 -78.5371 28° Northeast 486 559 37,000  Level FlightAware ADS-B (KCHO)
Mon 04:01:10 PM 38.2635 -78.4846 28° Northeast 486 559 37,000  Level FlightAware ADS-B (KCHO)
Mon 04:01:41 PM 38.3298 -78.4401 28° Northeast 485 558 37,000  Level FlightAware ADS-B (KCHO)
Mon 04:02:20 PM 38.4068 -78.3882 28° Northeast 486 559 37,000  Level FlightAware ADS-B (KCHO)
Mon 04:04:07 PM 38.6196 -78.2441 28° Northeast 489 563 37,000  Level FlightAware ADS-B (KCHO)
Mon 04:05:12 PM 38.7352 -78.1655 28° Northeast 489 563 37,000  Level FlightAware ADS-B (KDAA)
Mon 04:06:11 PM 38.8634 -78.0779 28° Northeast 487 560 37,000  Level FlightAware ADS-B (KDAA)
Mon 04:07:07 PM 38.9810 -77.9973 28° Northeast 490 564 37,000  Level FlightAware ADS-B (KDAA)
Mon 04:07:37 PM 39.0412 -77.9559 28° Northeast 491 565 37,000  Level FlightAware ADS-B (KDAA)
Mon 04:08:37 PM 39.1614 -77.8730 28° Northeast 497 572 37,000  Level FlightAware ADS-B (KDAA)
Mon 04:09:07 PM 39.2211 -77.8318 28° Northeast 498 573 37,000  Level FlightAware ADS-B (KDAA)
Mon 04:09:36 PM 39.2812 -77.7902 28° Northeast 499 574 37,000  Level FlightAware ADS-B (KDAA)
Mon 04:10:05 PM 39.3321 -77.7548 28° Northeast 500 575 37,000  Level FlightAware ADS-B (KDAA)
Mon 04:10:37 PM 39.3836 -77.7191 28° Northeast 502 578 37,000  Level FlightAware ADS-B (KDAA)
Mon 04:11:53 PM 39.5444 -77.6068 28° Northeast 501 577 37,000  Level FlightAware ADS-B (KDAA)
Mon 04:12:24 PM 39.6233 -77.5514 28° Northeast 501 577 37,000  Level FlightAware ADS-B (KDAA)
Mon 04:13:03 PM 39.7035 -77.4950 28° Northeast 501 577 37,000  Level FlightAware ADS-B (KDAA)
Mon 04:13:23 PM 39.7443 -77.4662 28° Northeast 500 575 37,000 -480 Level FlightAware ADS-B (KDAA)
Mon 04:14:18 PM 39.8559 -77.3960 21° North 490 564 36,400 -590 Descending FlightAware ADS-B (KDAA)
Mon 04:14:24 PM 39.8570 -77.3953 21° North 489 563 36,400 -947 Level FlightAware ADS-B (KDAA)
Mon 04:14:56 PM 39.8855 -77.3805 22° Northeast 492 566 35,800 -1,108 Descending FlightAware ADS-B (KPHL)
Mon 04:15:29 PM 39.9718 -77.3350 22° Northeast 494 568 35,200 -1,495 Descending FlightAware ADS-B (KPHL)
Mon 04:19:57 PM 40.5701 -77.0154 22° Northeast 480 552 28,300 -1,764 Descending FlightAware ADS-B (KPHL)
Mon 04:20:42 PM 40.6624 -76.9656 22° Northeast 466 536 26,000 -3,030 Descending FlightAware ADS-B (KPHL)
Mon 04:21:38 PM 40.7706 -76.9074 23° Northeast 439 505 23,200 -1,488 Descending FlightAware ADS-B (KPHL)
Mon 04:22:43 PM 40.8934 -76.8408 22° Northeast 435 501 23,000 -125 Descending FlightAware ADS-B (KPHL)
Mon 04:23:14 PM 40.9446 -76.8131 22° Northeast 436 502 23,000  Level FlightAware ADS-B (KPHL)
Mon 04:23:52 PM 41.0200 -76.7720 22° Northeast 435 501 23,000  Level FlightAware ADS-B
Mon 04:23:58 PM 41.0322 -76.7653 23° Northeast 434 499 23,000  Level FlightAware ADS-B (KPHL)
Mon 04:24:29 PM 41.0900 -76.7330 22° Northeast 435 501 23,000  Level FlightAware ADS-B
Mon 04:24:38 PM 41.1007 -76.7274 23° Northeast 436 502 23,000  Level FlightAware ADS-B (KPHL)
Mon 04:25:05 PM 41.1560 -76.6970 22° Northeast 441 507 23,000  Level FlightAware ADS-B
Mon 04:25:41 PM 41.2250 -76.6590 22° Northeast 440 506 23,000  Level FlightAware ADS-B
Mon 04:26:09 PM 41.2740 -76.6320 22° Northeast 438 504 23,000  Level FlightAware ADS-B
Mon 04:26:47 PM 41.3480 -76.5910 22° Northeast 438 504 23,000  Level FlightAware ADS-B
Mon 04:27:20 PM 41.3560 -76.5870 22° Northeast 440 506 23,000  Level FlightAware ADS-B
Mon 04:27:53 PM 41.4720 -76.5220 22° Northeast 438 504 23,000 -185 Level FlightAware ADS-B
Mon 04:28:25 PM 41.5310 -76.4910 16° North 431 496 22,800 -968 Descending FlightAware ADS-B
Mon 04:28:55 PM 41.5900 -76.4780 North 413 475 22,000 -1,818 Descending FlightAware ADS-B
Mon 04:29:31 PM 41.6560 -76.4670 North 407 468 20,800 -2,000 Descending FlightAware ADS-B
Mon 04:30:07 PM 41.7230 -76.4550 North 398 458 19,600 -2,000 Descending FlightAware ADS-B
Mon 04:30:37 PM 41.7780 -76.4460 North 393 452 18,600 -1,909 Descending FlightAware ADS-B
Mon 04:31:13 PM 41.8410 -76.4350 North 388 447 17,500 -1,200 Descending FlightAware ADS-B
Mon 04:31:42 PM 41.8940 -76.4260 North 392 451 17,300 -222 Descending FlightAware ADS-B
Mon 04:33:01 PM 42.0340 -76.4020 North 383 441 17,100 -545 Descending FlightAware ADS-B
Mon 04:33:32 PM 42.0860 -76.3930 North 379 436 16,300 -1,235 Descending FlightAware ADS-B
Mon 04:34:09 PM 42.1530 -76.3820 North 385 443 15,700 -1,091 Descending FlightAware ADS-B
Mon 04:34:38 PM 42.2040 -76.3730 North 386 444 15,100 -1,000 Descending FlightAware ADS-B
Mon 04:35:15 PM 42.2700 -76.3610 North 386 444 14,600 -1,075 Descending FlightAware ADS-B
Mon 04:35:45 PM 42.3230 -76.3520 North 388 447 13,900 -1,048 Descending FlightAware ADS-B
Mon 04:36:18 PM 42.3480 -76.3480 North 386 444 13,500 -1,742 Descending FlightAware ADS-B
Mon 04:36:47 PM 42.4330 -76.3330 North 379 436 12,100 -2,069 Descending FlightAware ADS-B
Mon 04:37:16 PM 42.4730 -76.3260 North 376 433 11,500 -750 Descending FlightAware ADS-B
Mon 04:37:51 PM 42.5420 -76.3140 North 368 423 11,300 -160 Descending FlightAware ADS-B
Mon 04:38:31 PM 42.6060 -76.3030 North 368 423 11,300 -154 Level FlightAware ADS-B
Mon 04:39:09 PM 42.6500 -76.2950 North 365 420 11,100 -953 Descending FlightAware ADS-B
Mon 04:40:18 PM 42.7731 -76.2750 North 332 382 9,600 -1,395 Descending Boston Center
Mon 04:41:18 PM 42.8639 -76.2572 North 318 366 8,100 -1,385 Descending Boston Center
Mon 04:42:28 PM 42.9622 -76.2406 North 298 343 6,600 -1,406 Descending Boston Center
Mon 04:43:26 PM 43.0381 -76.2281 North 282 325 5,100 -1,729 Descending Boston Center
Mon 04:44:26 PM 43.1128 -76.2283 360° North 266 306 3,200 -1,537 Descending Boston Center
Mon 04:45:27 PM 43.1750 -76.2275 North 214 246 2,000 -776 Descending Boston Center
Mon 04:46:22 PM 43.1683 -76.1789 101° East 115 132 1,700 -273 Descending Boston Center
Mon 04:46:33 PM 43.1672 -76.1769 128° Southeast 180 207 1,700 -500 Level Boston Center
Mon 04:47:22 PM 43.1442 -76.1447 134° Southeast 118 136 1,200 -590 Descending Boston Center
Mon 04:47:34 PM 43.1431 -76.1422 121° Southeast 145 167 1,100 -493 Descending Boston Center
Mon 04:48:35 PM 43.1172 -76.1058 134° Southeast 134 154 600 -492 Descending Boston Center

Login

Don't have an account? Register now (free) for customized features, flight alerts, and more!